createdAt,value
2022-09-20T00:00:43.331Z,1.98
2022-09-20T00:06:13.157Z,2.15
2022-09-20T00:11:37.128Z,2.03
2022-09-20T00:17:00.810Z,2.45
2022-09-20T00:22:25.766Z,1.95
2022-09-20T00:27:49.631Z,2.22
2022-09-20T00:33:13.267Z,2.00
2022-09-20T00:38:38.325Z,2.20
2022-09-20T00:44:03.798Z,1.88
2022-09-20T00:49:29.551Z,2.10
2022-09-20T00:54:55.520Z,1.90
2022-09-20T01:00:19.357Z,1.70
2022-09-20T01:05:45.156Z,1.65
2022-09-20T01:11:10.139Z,1.70
2022-09-20T01:16:35.049Z,1.70
2022-09-20T01:21:59.054Z,1.35
2022-09-20T01:27:36.929Z,1.77
2022-09-20T01:33:10.632Z,2.22
2022-09-20T01:38:44.484Z,2.05
2022-09-20T01:44:18.247Z,2.10
2022-09-20T01:49:51.570Z,1.70
2022-09-20T01:55:50.574Z,1.70
2022-09-20T02:01:48.071Z,1.98
2022-09-20T02:07:30.974Z,1.70
2022-09-20T02:12:56.461Z,1.60
2022-09-20T02:18:40.095Z,1.63
2022-09-20T02:24:14.351Z,1.63
2022-09-20T02:29:48.760Z,1.88
2022-09-20T02:35:29.038Z,1.60
2022-09-20T02:41:12.790Z,1.90
2022-09-20T02:46:46.400Z,1.67
2022-09-20T02:52:21.929Z,2.47
2022-09-20T02:57:55.427Z,1.80
2022-09-20T03:03:30.582Z,2.00
2022-09-20T03:09:12.470Z,1.80
2022-09-20T03:14:38.954Z,1.85
2022-09-20T03:20:12.833Z,2.10
2022-09-20T03:25:49.290Z,2.00
2022-09-20T03:31:25.667Z,1.98
2022-09-20T03:37:07.472Z,2.20
2022-09-20T03:42:33.088Z,1.95
2022-09-20T03:48:11.945Z,2.42
2022-09-20T03:54:08.886Z,2.78
2022-09-20T03:59:48.355Z,2.53
2022-09-20T04:05:16.784Z,2.95
2022-09-20T04:10:55.075Z,2.65
2022-09-20T04:16:33.351Z,2.70
2022-09-20T04:21:58.415Z,3.10
2022-09-20T04:27:28.854Z,4.30
2022-09-20T04:33:01.192Z,3.83
2022-09-20T04:38:26.413Z,3.33
2022-09-20T04:44:27.799Z,3.97
2022-09-20T04:50:32.882Z,3.67
2022-09-20T04:56:02.002Z,4.15
2022-09-20T05:02:00.144Z,3.90
2022-09-20T05:07:49.638Z,3.65
2022-09-20T05:13:22.089Z,3.38
2022-09-20T05:19:16.467Z,3.05
2022-09-20T05:25:13.922Z,3.25
2022-09-20T05:30:42.417Z,3.08
2022-09-20T05:36:09.815Z,3.42
2022-09-20T05:41:42.226Z,3.35
2022-09-20T05:47:18.039Z,4.03
2022-09-20T05:52:52.483Z,4.32
2022-09-20T05:58:43.575Z,3.58
2022-09-20T06:04:17.617Z,3.55
2022-09-20T06:09:56.752Z,3.40
2022-09-20T06:15:30.169Z,3.50
2022-09-20T06:21:02.802Z,3.30
2022-09-20T06:26:30.103Z,3.75
2022-09-20T06:31:56.717Z,2.85
2022-09-20T06:37:51.993Z,2.47
2022-09-20T06:43:16.018Z,2.22
2022-09-20T06:48:40.963Z,2.22
2022-09-20T06:54:06.652Z,2.10
2022-09-20T06:59:30.275Z,2.08
2022-09-20T07:04:58.106Z,2.33
2022-09-20T07:10:21.798Z,3.17
2022-09-20T07:15:45.509Z,2.10
2022-09-20T07:21:12.592Z,3.42
2022-09-20T07:26:37.132Z,2.88
2022-09-20T07:32:00.786Z,2.75
2022-09-20T07:37:25.778Z,2.15
2022-09-20T07:42:53.037Z,1.95
2022-09-20T07:48:22.106Z,1.98
2022-09-20T07:53:47.047Z,1.80
2022-09-20T07:59:11.285Z,1.90
2022-09-20T08:04:35.205Z,1.50
2022-09-20T08:10:00.443Z,2.08
2022-09-20T08:15:24.572Z,1.92
2022-09-20T08:20:48.867Z,1.60
2022-09-20T08:26:17.093Z,1.83
2022-09-20T08:31:42.475Z,1.65
2022-09-20T08:37:06.356Z,1.30
2022-09-20T08:42:37.820Z,1.20
2022-09-20T08:48:06.691Z,1.33
2022-09-20T08:53:31.559Z,1.40
2022-09-20T08:58:59.819Z,1.30
2022-09-20T09:04:25.306Z,1.30
2022-09-20T09:09:51.370Z,1.08
2022-09-20T09:15:26.454Z,1.70
2022-09-20T09:20:51.685Z,1.33
2022-09-20T09:26:21.831Z,1.20
2022-09-20T09:31:48.260Z,1.30
2022-09-20T09:37:28.802Z,1.35
2022-09-20T09:42:54.642Z,1.60
2022-09-20T09:48:21.916Z,1.30
2022-09-20T09:53:47.047Z,1.25
2022-09-20T09:59:39.038Z,1.17
2022-09-20T10:05:11.131Z,1.27
2022-09-20T10:10:41.570Z,0.90
2022-09-20T10:16:13.318Z,1.10
2022-09-20T10:21:50.991Z,1.50
2022-09-20T10:27:23.672Z,1.10
2022-09-20T10:33:04.543Z,1.40
2022-09-20T10:44:09.733Z,1.02
2022-09-20T10:49:37.510Z,0.82
2022-09-20T10:55:16.954Z,1.40
2022-09-20T11:00:50.781Z,1.15
2022-09-20T11:06:21.381Z,1.00
2022-09-20T11:11:48.931Z,2.60
2022-09-20T11:17:16.719Z,9.73
2022-09-20T11:22:48.094Z,6.50
2022-09-20T11:28:19.441Z,4.25
2022-09-20T11:33:47.095Z,2.00
2022-09-20T11:39:16.205Z,1.60
2022-09-20T11:44:42.641Z,1.15
2022-09-20T11:50:26.918Z,1.30
2022-09-20T11:55:59.052Z,1.38
2022-09-20T12:01:29.057Z,1.55
2022-09-20T12:07:06.054Z,1.30
2022-09-20T12:12:41.608Z,1.35
2022-09-20T12:18:15.602Z,1.02
2022-09-20T12:24:11.617Z,1.00
2022-09-20T12:30:04.870Z,1.00
2022-09-20T12:36:01.148Z,1.40
2022-09-20T12:41:28.534Z,6.05
2022-09-20T12:46:56.513Z,3.05
2022-09-20T12:52:57.572Z,1.00
2022-09-20T12:58:25.240Z,1.00
2022-09-20T13:03:50.706Z,0.70
2022-09-20T13:09:17.174Z,0.77
2022-09-20T13:14:42.003Z,1.00
2022-09-20T13:20:06.525Z,1.02
2022-09-20T13:25:32.128Z,1.10
2022-09-20T13:31:27.242Z,1.42
2022-09-20T13:36:56.337Z,1.10
2022-09-20T13:42:22.082Z,1.00
2022-09-20T13:47:50.356Z,1.23
2022-09-20T13:53:33.578Z,1.00
2022-09-20T13:59:06.146Z,1.10
2022-09-20T14:04:31.707Z,1.00
2022-09-20T14:09:58.236Z,0.98
2022-09-20T14:15:23.746Z,0.85
2022-09-20T14:20:47.943Z,0.80
2022-09-20T14:26:23.989Z,0.82
2022-09-20T14:31:49.477Z,0.80
2022-09-20T14:37:17.426Z,0.90
2022-09-20T14:42:44.780Z,1.10
2022-09-20T14:48:33.492Z,0.80
2022-09-20T14:54:25.474Z,1.08
2022-09-20T14:59:57.118Z,1.00
2022-09-20T15:05:26.143Z,0.85
2022-09-20T15:10:49.918Z,1.33
2022-09-20T15:16:15.526Z,1.05
2022-09-20T15:21:40.597Z,1.30
2022-09-20T15:27:04.257Z,1.27
2022-09-20T15:32:27.874Z,1.35
2022-09-20T15:37:52.834Z,1.30
2022-09-20T15:43:18.422Z,1.05
2022-09-20T15:48:43.009Z,1.25
2022-09-20T15:54:09.588Z,2.30
2022-09-20T15:59:39.657Z,1.17
2022-09-20T16:05:06.899Z,1.02
2022-09-20T16:10:32.713Z,1.33
2022-09-20T16:15:57.189Z,1.08
2022-09-20T16:21:21.196Z,1.30
2022-09-20T16:26:47.460Z,1.73
2022-09-20T16:32:15.097Z,1.52
2022-09-20T16:37:42.547Z,1.10
2022-09-20T16:43:09.157Z,1.48
2022-09-20T16:48:34.259Z,2.58
2022-09-20T16:53:58.554Z,1.98
2022-09-20T16:59:25.476Z,1.90
2022-09-20T17:04:49.733Z,1.80
2022-09-20T17:10:13.332Z,2.20
2022-09-20T17:15:38.306Z,3.13
2022-09-20T17:21:05.988Z,4.38
2022-09-20T17:26:33.233Z,3.70
2022-09-20T17:31:59.740Z,2.63
2022-09-20T17:37:24.563Z,6.03
2022-09-20T17:42:48.186Z,2.25
2022-09-20T17:48:13.164Z,1.55
2022-09-20T17:53:37.291Z,1.80
2022-09-20T17:59:01.995Z,2.33
2022-09-20T18:04:26.963Z,2.95
2022-09-20T18:09:50.676Z,5.20
2022-09-20T18:15:14.467Z,3.90
2022-09-20T18:20:39.439Z,3.25
2022-09-20T18:26:25.919Z,2.80
2022-09-20T18:31:52.082Z,2.88
2022-09-20T18:37:17.296Z,2.88
2022-09-20T18:42:40.904Z,2.17
2022-09-20T18:48:04.648Z,2.63
2022-09-20T18:53:31.228Z,2.60
2022-09-20T18:58:57.694Z,2.60
2022-09-20T19:04:30.332Z,2.50
2022-09-20T19:10:01.038Z,2.60
2022-09-20T19:15:48.755Z,2.40
2022-09-20T19:21:22.773Z,3.13
2022-09-20T19:26:49.706Z,2.58
2022-09-20T19:32:18.778Z,2.85
2022-09-20T19:37:53.669Z,2.63
2022-09-20T19:43:45.754Z,2.90
2022-09-20T19:49:15.423Z,3.25
2022-09-20T19:54:42.219Z,3.22
2022-09-20T20:00:15.281Z,2.78
2022-09-20T20:05:41.475Z,2.97
2022-09-20T20:11:13.598Z,2.88
2022-09-20T20:16:50.154Z,2.80
2022-09-20T20:22:29.381Z,2.55
2022-09-20T20:27:53.042Z,2.60
2022-09-20T20:33:18.984Z,2.55
2022-09-20T20:38:49.537Z,2.30
2022-09-20T20:44:14.115Z,2.33
2022-09-20T20:49:39.070Z,2.70
2022-09-20T20:55:02.696Z,2.60
2022-09-20T21:00:26.653Z,3.00
2022-09-20T21:06:02.028Z,3.13
2022-09-20T21:11:33.366Z,2.90
2022-09-20T21:16:57.228Z,2.88
2022-09-20T21:22:22.278Z,3.17
2022-09-20T21:27:45.900Z,3.25
2022-09-20T21:33:09.533Z,2.75
2022-09-20T21:38:34.625Z,3.08
2022-09-20T21:44:00.118Z,3.13
2022-09-20T21:49:23.739Z,3.42
2022-09-20T21:54:48.942Z,2.97
2022-09-20T22:00:13.850Z,3.05
2022-09-20T22:05:37.541Z,3.58
2022-09-20T22:11:14.921Z,3.30
2022-09-20T22:16:40.837Z,3.63
2022-09-20T22:22:04.484Z,3.17
2022-09-20T22:27:29.421Z,4.13
2022-09-20T22:32:52.998Z,3.58
2022-09-20T22:38:17.993Z,3.55
2022-09-20T22:43:43.077Z,3.78
2022-09-20T22:49:07.108Z,3.90
2022-09-20T22:54:31.074Z,3.55
2022-09-20T22:59:56.252Z,3.58
2022-09-20T23:05:19.847Z,3.78
2022-09-20T23:10:43.439Z,3.22
2022-09-20T23:16:18.708Z,3.17
2022-09-20T23:21:43.935Z,3.47
2022-09-20T23:27:07.704Z,3.40
2022-09-20T23:32:32.678Z,3.50
2022-09-20T23:37:56.978Z,3.67
2022-09-20T23:43:20.530Z,3.83
2022-09-20T23:48:45.594Z,3.97
2022-09-20T23:54:09.173Z,3.10
2022-09-20T23:59:33.221Z,3.20
